sensor_id;sensor_type;location;lat;lon;timestamp;P1;durP1;ratioP1;P2;durP2;ratioP2
41829;SDS011;38614;43.472;23.936;2023-04-24T00:00:19;8.48;;;2.30;;
41829;SDS011;38614;43.472;23.936;2023-04-24T00:03:07;4.15;;;2.55;;
41829;SDS011;38614;43.472;23.936;2023-04-24T00:05:55;5.63;;;1.92;;
41829;SDS011;38614;43.472;23.936;2023-04-24T00:08:43;7.18;;;3.00;;
41829;SDS011;38614;43.472;23.936;2023-04-24T00:11:31;3.58;;;3.03;;
41829;SDS011;38614;43.472;23.936;2023-04-24T00:14:18;4.30;;;3.03;;
41829;SDS011;38614;43.472;23.936;2023-04-24T00:17:06;7.25;;;2.65;;
41829;SDS011;38614;43.472;23.936;2023-04-24T00:19:54;5.32;;;2.55;;
41829;SDS011;38614;43.472;23.936;2023-04-24T00:22:54;14.23;;;3.33;;
41829;SDS011;38614;43.472;23.936;2023-04-24T00:25:41;12.07;;;4.03;;
41829;SDS011;38614;43.472;23.936;2023-04-24T00:28:29;3.95;;;2.95;;
41829;SDS011;38614;43.472;23.936;2023-04-24T00:31:17;9.43;;;2.78;;
41829;SDS011;38614;43.472;23.936;2023-04-24T00:34:05;12.25;;;3.03;;
41829;SDS011;38614;43.472;23.936;2023-04-24T00:36:53;11.48;;;2.97;;
41829;SDS011;38614;43.472;23.936;2023-04-24T00:39:42;6.45;;;3.33;;
41829;SDS011;38614;43.472;23.936;2023-04-24T00:42:30;5.93;;;3.03;;
41829;SDS011;38614;43.472;23.936;2023-04-24T00:45:18;11.63;;;4.03;;
41829;SDS011;38614;43.472;23.936;2023-04-24T00:48:07;5.03;;;3.47;;
41829;SDS011;38614;43.472;23.936;2023-04-24T00:50:55;7.70;;;3.30;;
41829;SDS011;38614;43.472;23.936;2023-04-24T00:53:43;3.92;;;3.33;;
41829;SDS011;38614;43.472;23.936;2023-04-24T00:56:31;4.82;;;2.95;;
41829;SDS011;38614;43.472;23.936;2023-04-24T00:59:18;4.38;;;3.03;;
41829;SDS011;38614;43.472;23.936;2023-04-24T01:02:10;3.25;;;2.88;;
41829;SDS011;38614;43.472;23.936;2023-04-24T01:04:58;3.47;;;2.53;;
41829;SDS011;38614;43.472;23.936;2023-04-24T01:07:47;4.43;;;3.20;;
41829;SDS011;38614;43.472;23.936;2023-04-24T01:10:38;4.43;;;2.70;;
41829;SDS011;38614;43.472;23.936;2023-04-24T01:13:28;7.45;;;3.13;;
41829;SDS011;38614;43.472;23.936;2023-04-24T01:16:16;2.72;;;2.38;;
41829;SDS011;38614;43.472;23.936;2023-04-24T01:19:07;8.13;;;2.50;;
41829;SDS011;38614;43.472;23.936;2023-04-24T01:21:58;4.38;;;3.30;;
41829;SDS011;38614;43.472;23.936;2023-04-24T01:24:49;7.65;;;2.60;;
41829;SDS011;38614;43.472;23.936;2023-04-24T01:27:36;4.53;;;3.10;;
41829;SDS011;38614;43.472;23.936;2023-04-24T01:30:25;7.45;;;2.90;;
41829;SDS011;38614;43.472;23.936;2023-04-24T01:33:13;8.00;;;3.05;;
41829;SDS011;38614;43.472;23.936;2023-04-24T01:36:09;17.70;;;4.18;;
41829;SDS011;38614;43.472;23.936;2023-04-24T01:38:58;23.02;;;6.63;;
41829;SDS011;38614;43.472;23.936;2023-04-24T01:41:48;18.80;;;7.30;;
41829;SDS011;38614;43.472;23.936;2023-04-24T01:44:39;18.73;;;5.47;;
41829;SDS011;38614;43.472;23.936;2023-04-24T01:47:28;10.60;;;4.57;;
41829;SDS011;38614;43.472;23.936;2023-04-24T01:50:18;11.07;;;4.28;;
41829;SDS011;38614;43.472;23.936;2023-04-24T01:53:06;6.65;;;4.03;;
41829;SDS011;38614;43.472;23.936;2023-04-24T01:55:55;5.68;;;3.80;;
41829;SDS011;38614;43.472;23.936;2023-04-24T01:58:44;5.47;;;3.13;;
41829;SDS011;38614;43.472;23.936;2023-04-24T02:01:35;8.07;;;3.92;;
41829;SDS011;38614;43.472;23.936;2023-04-24T02:04:27;5.88;;;2.53;;
41829;SDS011;38614;43.472;23.936;2023-04-24T02:07:15;10.20;;;3.05;;
41829;SDS011;38614;43.472;23.936;2023-04-24T02:10:04;6.72;;;3.50;;
41829;SDS011;38614;43.472;23.936;2023-04-24T02:12:57;10.43;;;3.92;;
41829;SDS011;38614;43.472;23.936;2023-04-24T02:15:47;8.13;;;4.40;;
41829;SDS011;38614;43.472;23.936;2023-04-24T02:18:35;8.43;;;3.80;;
41829;SDS011;38614;43.472;23.936;2023-04-24T02:21:24;6.40;;;3.78;;
41829;SDS011;38614;43.472;23.936;2023-04-24T02:24:15;13.45;;;4.43;;
41829;SDS011;38614;43.472;23.936;2023-04-24T02:27:03;5.97;;;3.67;;
41829;SDS011;38614;43.472;23.936;2023-04-24T02:29:51;7.68;;;4.32;;
41829;SDS011;38614;43.472;23.936;2023-04-24T02:32:39;10.27;;;3.88;;
41829;SDS011;38614;43.472;23.936;2023-04-24T02:35:30;10.80;;;4.95;;
41829;SDS011;38614;43.472;23.936;2023-04-24T02:38:18;8.60;;;4.13;;
41829;SDS011;38614;43.472;23.936;2023-04-24T02:41:06;6.28;;;4.47;;
41829;SDS011;38614;43.472;23.936;2023-04-24T02:43:54;5.68;;;3.95;;
41829;SDS011;38614;43.472;23.936;2023-04-24T02:46:47;6.38;;;4.45;;
41829;SDS011;38614;43.472;23.936;2023-04-24T02:49:36;7.05;;;4.75;;
41829;SDS011;38614;43.472;23.936;2023-04-24T02:52:23;9.40;;;4.35;;
41829;SDS011;38614;43.472;23.936;2023-04-24T02:55:12;5.38;;;4.75;;
41829;SDS011;38614;43.472;23.936;2023-04-24T02:58:00;8.45;;;4.85;;
41829;SDS011;38614;43.472;23.936;2023-04-24T03:00:48;8.30;;;3.53;;
41829;SDS011;38614;43.472;23.936;2023-04-24T03:03:36;7.40;;;4.45;;
41829;SDS011;38614;43.472;23.936;2023-04-24T03:06:24;7.57;;;3.90;;
41829;SDS011;38614;43.472;23.936;2023-04-24T03:09:14;5.55;;;4.28;;
41829;SDS011;38614;43.472;23.936;2023-04-24T03:12:02;8.23;;;4.82;;
41829;SDS011;38614;43.472;23.936;2023-04-24T03:14:52;4.80;;;3.78;;
41829;SDS011;38614;43.472;23.936;2023-04-24T03:17:40;7.43;;;4.60;;
41829;SDS011;38614;43.472;23.936;2023-04-24T03:20:29;7.95;;;4.28;;
41829;SDS011;38614;43.472;23.936;2023-04-24T03:23:17;7.38;;;3.75;;
41829;SDS011;38614;43.472;23.936;2023-04-24T03:26:06;6.90;;;4.53;;
41829;SDS011;38614;43.472;23.936;2023-04-24T03:28:57;6.90;;;4.18;;
41829;SDS011;38614;43.472;23.936;2023-04-24T03:31:45;7.45;;;4.32;;
41829;SDS011;38614;43.472;23.936;2023-04-24T03:34:33;8.65;;;4.18;;
41829;SDS011;38614;43.472;23.936;2023-04-24T03:37:21;6.38;;;4.28;;
41829;SDS011;38614;43.472;23.936;2023-04-24T03:40:19;14.00;;;4.63;;
41829;SDS011;38614;43.472;23.936;2023-04-24T03:43:07;8.60;;;5.28;;
41829;SDS011;38614;43.472;23.936;2023-04-24T03:45:56;7.97;;;4.50;;
41829;SDS011;38614;43.472;23.936;2023-04-24T03:48:47;11.15;;;4.95;;
41829;SDS011;38614;43.472;23.936;2023-04-24T03:51:37;7.47;;;5.10;;
41829;SDS011;38614;43.472;23.936;2023-04-24T03:54:38;8.47;;;5.20;;
41829;SDS011;38614;43.472;23.936;2023-04-24T03:57:26;6.53;;;4.90;;
41829;SDS011;38614;43.472;23.936;2023-04-24T04:00:26;5.88;;;3.88;;
41829;SDS011;38614;43.472;23.936;2023-04-24T04:03:34;6.45;;;4.22;;
41829;SDS011;38614;43.472;23.936;2023-04-24T04:06:22;4.95;;;4.15;;
41829;SDS011;38614;43.472;23.936;2023-04-24T04:09:13;7.80;;;5.00;;
41829;SDS011;38614;43.472;23.936;2023-04-24T04:12:01;7.38;;;4.60;;
41829;SDS011;38614;43.472;23.936;2023-04-24T04:14:49;10.15;;;5.03;;
41829;SDS011;38614;43.472;23.936;2023-04-24T04:17:36;6.22;;;4.50;;
41829;SDS011;38614;43.472;23.936;2023-04-24T04:20:26;8.80;;;6.03;;
41829;SDS011;38614;43.472;23.936;2023-04-24T04:23:14;10.52;;;5.15;;
41829;SDS011;38614;43.472;23.936;2023-04-24T04:26:12;14.23;;;5.93;;
41829;SDS011;38614;43.472;23.936;2023-04-24T04:29:28;13.95;;;4.85;;
41829;SDS011;38614;43.472;23.936;2023-04-24T04:32:20;11.60;;;5.18;;
41829;SDS011;38614;43.472;23.936;2023-04-24T04:35:09;13.98;;;5.68;;
41829;SDS011;38614;43.472;23.936;2023-04-24T04:37:57;8.73;;;5.68;;
41829;SDS011;38614;43.472;23.936;2023-04-24T04:40:55;8.48;;;5.53;;
41829;SDS011;38614;43.472;23.936;2023-04-24T04:43:47;12.75;;;7.00;;
41829;SDS011;38614;43.472;23.936;2023-04-24T04:46:36;10.27;;;5.63;;
41829;SDS011;38614;43.472;23.936;2023-04-24T04:49:41;7.43;;;5.20;;
41829;SDS011;38614;43.472;23.936;2023-04-24T04:52:40;11.90;;;6.57;;
41829;SDS011;38614;43.472;23.936;2023-04-24T04:55:38;14.57;;;7.07;;
41829;SDS011;38614;43.472;23.936;2023-04-24T04:58:37;8.95;;;4.55;;
41829;SDS011;38614;43.472;23.936;2023-04-24T05:01:29;11.95;;;5.65;;
41829;SDS011;38614;43.472;23.936;2023-04-24T05:04:16;9.75;;;6.18;;
41829;SDS011;38614;43.472;23.936;2023-04-24T05:07:04;13.25;;;5.30;;
41829;SDS011;38614;43.472;23.936;2023-04-24T05:09:57;7.05;;;5.65;;
41829;SDS011;38614;43.472;23.936;2023-04-24T05:12:45;9.95;;;5.90;;
41829;SDS011;38614;43.472;23.936;2023-04-24T05:15:33;7.75;;;5.10;;
41829;SDS011;38614;43.472;23.936;2023-04-24T05:18:21;8.40;;;4.70;;
41829;SDS011;38614;43.472;23.936;2023-04-24T05:21:11;4.63;;;3.35;;
41829;SDS011;38614;43.472;23.936;2023-04-24T05:24:02;6.63;;;5.32;;
41829;SDS011;38614;43.472;23.936;2023-04-24T05:27:08;4.43;;;3.45;;
41829;SDS011;38614;43.472;23.936;2023-04-24T05:29:59;5.72;;;3.95;;
41829;SDS011;38614;43.472;23.936;2023-04-24T05:32:47;5.55;;;3.70;;
41829;SDS011;38614;43.472;23.936;2023-04-24T05:35:35;6.32;;;4.03;;
41829;SDS011;38614;43.472;23.936;2023-04-24T05:38:22;8.65;;;3.63;;
41829;SDS011;38614;43.472;23.936;2023-04-24T05:41:10;4.00;;;3.60;;
41829;SDS011;38614;43.472;23.936;2023-04-24T05:43:58;8.48;;;4.35;;
41829;SDS011;38614;43.472;23.936;2023-04-24T05:46:47;5.00;;;3.72;;
41829;SDS011;38614;43.472;23.936;2023-04-24T05:49:36;10.85;;;4.22;;
41829;SDS011;38614;43.472;23.936;2023-04-24T05:52:24;7.72;;;5.25;;
41829;SDS011;38614;43.472;23.936;2023-04-24T05:55:12;5.68;;;4.95;;
41829;SDS011;38614;43.472;23.936;2023-04-24T05:58:01;8.80;;;6.18;;
41829;SDS011;38614;43.472;23.936;2023-04-24T06:00:50;11.05;;;5.03;;
41829;SDS011;38614;43.472;23.936;2023-04-24T06:03:38;7.68;;;4.93;;
41829;SDS011;38614;43.472;23.936;2023-04-24T06:06:28;4.80;;;4.35;;
41829;SDS011;38614;43.472;23.936;2023-04-24T06:09:16;8.77;;;4.95;;
41829;SDS011;38614;43.472;23.936;2023-04-24T06:12:05;8.45;;;4.97;;
41829;SDS011;38614;43.472;23.936;2023-04-24T06:15:09;7.35;;;5.18;;
41829;SDS011;38614;43.472;23.936;2023-04-24T06:18:13;8.25;;;5.15;;
41829;SDS011;38614;43.472;23.936;2023-04-24T06:21:01;6.60;;;4.60;;
41829;SDS011;38614;43.472;23.936;2023-04-24T06:23:49;5.57;;;4.53;;
41829;SDS011;38614;43.472;23.936;2023-04-24T06:26:40;7.40;;;3.85;;
41829;SDS011;38614;43.472;23.936;2023-04-24T06:29:28;5.43;;;4.72;;
41829;SDS011;38614;43.472;23.936;2023-04-24T06:32:16;4.05;;;3.67;;
41829;SDS011;38614;43.472;23.936;2023-04-24T06:35:04;7.32;;;5.13;;
41829;SDS011;38614;43.472;23.936;2023-04-24T06:37:54;6.35;;;4.28;;
41829;SDS011;38614;43.472;23.936;2023-04-24T06:40:43;8.88;;;3.83;;
41829;SDS011;38614;43.472;23.936;2023-04-24T06:43:31;11.85;;;4.78;;
41829;SDS011;38614;43.472;23.936;2023-04-24T06:46:19;6.93;;;3.78;;
41829;SDS011;38614;43.472;23.936;2023-04-24T06:49:09;6.72;;;3.88;;
41829;SDS011;38614;43.472;23.936;2023-04-24T06:51:57;7.85;;;4.97;;
41829;SDS011;38614;43.472;23.936;2023-04-24T06:54:45;10.07;;;4.63;;
41829;SDS011;38614;43.472;23.936;2023-04-24T06:57:32;6.03;;;4.80;;
41829;SDS011;38614;43.472;23.936;2023-04-24T07:00:20;6.15;;;4.22;;
41829;SDS011;38614;43.472;23.936;2023-04-24T07:03:08;5.95;;;4.35;;
41829;SDS011;38614;43.472;23.936;2023-04-24T07:05:57;4.63;;;3.78;;
41829;SDS011;38614;43.472;23.936;2023-04-24T07:08:44;5.60;;;3.97;;
41829;SDS011;38614;43.472;23.936;2023-04-24T07:11:33;9.95;;;4.40;;
41829;SDS011;38614;43.472;23.936;2023-04-24T07:14:22;8.57;;;5.20;;
41829;SDS011;38614;43.472;23.936;2023-04-24T07:17:10;11.30;;;3.85;;
41829;SDS011;38614;43.472;23.936;2023-04-24T07:19:59;6.10;;;4.10;;
41829;SDS011;38614;43.472;23.936;2023-04-24T07:22:47;9.95;;;4.15;;
41829;SDS011;38614;43.472;23.936;2023-04-24T07:25:36;5.78;;;4.30;;
41829;SDS011;38614;43.472;23.936;2023-04-24T07:28:24;9.25;;;4.85;;
41829;SDS011;38614;43.472;23.936;2023-04-24T07:31:11;6.28;;;3.60;;
41829;SDS011;38614;43.472;23.936;2023-04-24T07:33:59;11.15;;;4.78;;
41829;SDS011;38614;43.472;23.936;2023-04-24T07:36:47;6.50;;;4.78;;
41829;SDS011;38614;43.472;23.936;2023-04-24T07:39:35;8.43;;;4.63;;
41829;SDS011;38614;43.472;23.936;2023-04-24T07:42:23;11.23;;;4.65;;
41829;SDS011;38614;43.472;23.936;2023-04-24T07:45:11;6.15;;;4.82;;
41829;SDS011;38614;43.472;23.936;2023-04-24T07:47:59;7.22;;;4.80;;
41829;SDS011;38614;43.472;23.936;2023-04-24T07:50:46;3.83;;;3.50;;
41829;SDS011;38614;43.472;23.936;2023-04-24T07:53:34;7.50;;;4.78;;
41829;SDS011;38614;43.472;23.936;2023-04-24T07:56:22;8.20;;;4.20;;
41829;SDS011;38614;43.472;23.936;2023-04-24T07:59:11;6.97;;;4.28;;
41829;SDS011;38614;43.472;23.936;2023-04-24T08:02:00;6.10;;;3.97;;
41829;SDS011;38614;43.472;23.936;2023-04-24T08:04:49;8.40;;;3.33;;
41829;SDS011;38614;43.472;23.936;2023-04-24T08:07:38;6.63;;;3.75;;
41829;SDS011;38614;43.472;23.936;2023-04-24T08:10:26;8.48;;;3.67;;
41829;SDS011;38614;43.472;23.936;2023-04-24T08:13:13;10.05;;;4.40;;
41829;SDS011;38614;43.472;23.936;2023-04-24T08:16:01;7.22;;;3.40;;
41829;SDS011;38614;43.472;23.936;2023-04-24T08:18:49;5.85;;;3.42;;
41829;SDS011;38614;43.472;23.936;2023-04-24T08:21:38;4.32;;;3.42;;
41829;SDS011;38614;43.472;23.936;2023-04-24T08:24:25;4.13;;;2.97;;
41829;SDS011;38614;43.472;23.936;2023-04-24T08:27:13;5.43;;;3.85;;
41829;SDS011;38614;43.472;23.936;2023-04-24T08:30:01;12.15;;;5.57;;
41829;SDS011;38614;43.472;23.936;2023-04-24T08:32:48;6.18;;;3.05;;
41829;SDS011;38614;43.472;23.936;2023-04-24T08:35:36;4.75;;;2.92;;
41829;SDS011;38614;43.472;23.936;2023-04-24T08:38:24;3.60;;;2.70;;
41829;SDS011;38614;43.472;23.936;2023-04-24T08:41:12;14.85;;;2.50;;
41829;SDS011;38614;43.472;23.936;2023-04-24T08:44:03;5.88;;;3.75;;
41829;SDS011;38614;43.472;23.936;2023-04-24T08:46:51;3.92;;;3.10;;
41829;SDS011;38614;43.472;23.936;2023-04-24T08:49:41;5.35;;;2.92;;
41829;SDS011;38614;43.472;23.936;2023-04-24T08:52:30;15.32;;;2.45;;
41829;SDS011;38614;43.472;23.936;2023-04-24T08:55:19;6.65;;;2.55;;
41829;SDS011;38614;43.472;23.936;2023-04-24T08:58:08;16.25;;;2.90;;
41829;SDS011;38614;43.472;23.936;2023-04-24T09:00:56;3.80;;;2.78;;
41829;SDS011;38614;43.472;23.936;2023-04-24T09:03:49;4.55;;;2.80;;
41829;SDS011;38614;43.472;23.936;2023-04-24T09:06:37;4.88;;;2.88;;
41829;SDS011;38614;43.472;23.936;2023-04-24T09:09:25;9.75;;;3.20;;
41829;SDS011;38614;43.472;23.936;2023-04-24T09:12:13;4.82;;;2.97;;
41829;SDS011;38614;43.472;23.936;2023-04-24T09:15:02;3.70;;;2.65;;
41829;SDS011;38614;43.472;23.936;2023-04-24T09:17:51;3.00;;;2.70;;
41829;SDS011;38614;43.472;23.936;2023-04-24T09:23:45;4.35;;;1.70;;
41829;SDS011;38614;43.472;23.936;2023-04-24T09:26:35;3.63;;;2.47;;
41829;SDS011;38614;43.472;23.936;2023-04-24T09:29:24;9.15;;;2.47;;
41829;SDS011;38614;43.472;23.936;2023-04-24T09:32:18;3.83;;;2.25;;
41829;SDS011;38614;43.472;23.936;2023-04-24T09:35:11;6.88;;;1.90;;
41829;SDS011;38614;43.472;23.936;2023-04-24T09:37:59;6.72;;;2.33;;
41829;SDS011;38614;43.472;23.936;2023-04-24T09:40:47;4.88;;;2.08;;
41829;SDS011;38614;43.472;23.936;2023-04-24T09:43:35;4.03;;;2.42;;
41829;SDS011;38614;43.472;23.936;2023-04-24T09:46:29;4.30;;;1.88;;
41829;SDS011;38614;43.472;23.936;2023-04-24T09:49:28;2.38;;;2.17;;
41829;SDS011;38614;43.472;23.936;2023-04-24T09:52:17;8.25;;;3.10;;
41829;SDS011;38614;43.472;23.936;2023-04-24T09:55:10;3.47;;;2.10;;
41829;SDS011;38614;43.472;23.936;2023-04-24T09:58:01;1.52;;;1.42;;
41829;SDS011;38614;43.472;23.936;2023-04-24T10:00:55;3.30;;;1.38;;
41829;SDS011;38614;43.472;23.936;2023-04-24T10:03:43;5.45;;;1.98;;
41829;SDS011;38614;43.472;23.936;2023-04-24T10:06:33;6.53;;;1.45;;
41829;SDS011;38614;43.472;23.936;2023-04-24T10:09:22;8.95;;;1.60;;
41829;SDS011;38614;43.472;23.936;2023-04-24T10:12:13;4.47;;;1.65;;
41829;SDS011;38614;43.472;23.936;2023-04-24T10:15:02;5.45;;;1.90;;
41829;SDS011;38614;43.472;23.936;2023-04-24T10:17:53;4.07;;;1.67;;
41829;SDS011;38614;43.472;23.936;2023-04-24T10:20:41;5.57;;;1.67;;
41829;SDS011;38614;43.472;23.936;2023-04-24T10:23:29;1.52;;;1.40;;
41829;SDS011;38614;43.472;23.936;2023-04-24T10:26:17;1.95;;;1.42;;
41829;SDS011;38614;43.472;23.936;2023-04-24T10:29:06;1.85;;;1.63;;
41829;SDS011;38614;43.472;23.936;2023-04-24T10:31:59;4.30;;;2.03;;
41829;SDS011;38614;43.472;23.936;2023-04-24T10:34:47;2.80;;;1.23;;
41829;SDS011;38614;43.472;23.936;2023-04-24T10:37:36;1.65;;;1.52;;
41829;SDS011;38614;43.472;23.936;2023-04-24T10:43:17;6.88;;;2.17;;
41829;SDS011;38614;43.472;23.936;2023-04-24T10:46:06;3.67;;;1.83;;
41829;SDS011;38614;43.472;23.936;2023-04-24T10:48:54;5.75;;;2.08;;
41829;SDS011;38614;43.472;23.936;2023-04-24T10:51:52;3.05;;;2.30;;
41829;SDS011;38614;43.472;23.936;2023-04-24T10:57:30;3.92;;;1.38;;
41829;SDS011;38614;43.472;23.936;2023-04-24T11:00:19;1.45;;;1.35;;
41829;SDS011;38614;43.472;23.936;2023-04-24T11:03:22;1.70;;;1.35;;
41829;SDS011;38614;43.472;23.936;2023-04-24T11:06:12;14.80;;;2.00;;
41829;SDS011;38614;43.472;23.936;2023-04-24T11:09:04;5.93;;;0.65;;
41829;SDS011;38614;43.472;23.936;2023-04-24T11:12:02;2.85;;;1.10;;
41829;SDS011;38614;43.472;23.936;2023-04-24T11:17:45;3.30;;;0.82;;
41829;SDS011;38614;43.472;23.936;2023-04-24T11:20:33;2.08;;;1.13;;
41829;SDS011;38614;43.472;23.936;2023-04-24T11:23:21;3.92;;;1.35;;
41829;SDS011;38614;43.472;23.936;2023-04-24T11:29:07;1.95;;;1.08;;
41829;SDS011;38614;43.472;23.936;2023-04-24T11:31:55;2.35;;;0.98;;
41829;SDS011;38614;43.472;23.936;2023-04-24T11:34:51;2.08;;;1.48;;
41829;SDS011;38614;43.472;23.936;2023-04-24T11:37:42;10.60;;;1.92;;
41829;SDS011;38614;43.472;23.936;2023-04-24T11:40:39;3.83;;;1.35;;
41829;SDS011;38614;43.472;23.936;2023-04-24T11:43:28;4.85;;;1.55;;
41829;SDS011;38614;43.472;23.936;2023-04-24T11:46:22;1.75;;;1.20;;
41829;SDS011;38614;43.472;23.936;2023-04-24T11:49:10;1.48;;;1.13;;
41829;SDS011;38614;43.472;23.936;2023-04-24T11:51:59;4.53;;;0.95;;
41829;SDS011;38614;43.472;23.936;2023-04-24T11:54:49;3.67;;;1.13;;
41829;SDS011;38614;43.472;23.936;2023-04-24T11:57:37;2.85;;;0.93;;
41829;SDS011;38614;43.472;23.936;2023-04-24T12:00:26;1.27;;;0.93;;
41829;SDS011;38614;43.472;23.936;2023-04-24T12:03:15;2.35;;;1.20;;
41829;SDS011;38614;43.472;23.936;2023-04-24T12:06:06;5.70;;;0.98;;
41829;SDS011;38614;43.472;23.936;2023-04-24T12:08:56;2.55;;;0.85;;
41829;SDS011;38614;43.472;23.936;2023-04-24T12:11:57;1.75;;;1.20;;
41829;SDS011;38614;43.472;23.936;2023-04-24T12:14:47;1.65;;;0.80;;
41829;SDS011;38614;43.472;23.936;2023-04-24T12:17:36;6.00;;;1.10;;
41829;SDS011;38614;43.472;23.936;2023-04-24T12:20:30;3.30;;;0.80;;
41829;SDS011;38614;43.472;23.936;2023-04-24T12:23:34;1.40;;;0.98;;
41829;SDS011;38614;43.472;23.936;2023-04-24T12:26:23;4.55;;;0.90;;
41829;SDS011;38614;43.472;23.936;2023-04-24T12:29:11;1.80;;;1.10;;
41829;SDS011;38614;43.472;23.936;2023-04-24T12:32:15;2.10;;;0.85;;
41829;SDS011;38614;43.472;23.936;2023-04-24T12:35:04;9.02;;;0.55;;
41829;SDS011;38614;43.472;23.936;2023-04-24T12:37:53;3.47;;;1.15;;
41829;SDS011;38614;43.472;23.936;2023-04-24T12:40:41;3.90;;;0.70;;
41829;SDS011;38614;43.472;23.936;2023-04-24T12:43:30;1.27;;;0.77;;
41829;SDS011;38614;43.472;23.936;2023-04-24T12:46:18;4.00;;;0.65;;
41829;SDS011;38614;43.472;23.936;2023-04-24T12:49:08;1.88;;;0.73;;
41829;SDS011;38614;43.472;23.936;2023-04-24T12:51:57;3.15;;;0.90;;
41829;SDS011;38614;43.472;23.936;2023-04-24T12:54:45;2.63;;;1.15;;
41829;SDS011;38614;43.472;23.936;2023-04-24T12:57:33;2.05;;;1.00;;
41829;SDS011;38614;43.472;23.936;2023-04-24T13:00:22;1.58;;;0.82;;
41829;SDS011;38614;43.472;23.936;2023-04-24T13:03:10;3.60;;;0.80;;
41829;SDS011;38614;43.472;23.936;2023-04-24T13:05:58;1.67;;;0.57;;
41829;SDS011;38614;43.472;23.936;2023-04-24T13:08:46;7.50;;;0.80;;
41829;SDS011;38614;43.472;23.936;2023-04-24T13:11:34;2.83;;;1.58;;
41829;SDS011;38614;43.472;23.936;2023-04-24T13:14:22;5.28;;;1.90;;
41829;SDS011;38614;43.472;23.936;2023-04-24T13:17:10;4.72;;;2.50;;
41829;SDS011;38614;43.472;23.936;2023-04-24T13:19:59;2.00;;;1.40;;
41829;SDS011;38614;43.472;23.936;2023-04-24T13:22:47;2.45;;;1.63;;
41829;SDS011;38614;43.472;23.936;2023-04-24T13:25:35;4.15;;;1.60;;
41829;SDS011;38614;43.472;23.936;2023-04-24T13:28:26;3.15;;;1.67;;
41829;SDS011;38614;43.472;23.936;2023-04-24T13:31:14;3.17;;;2.17;;
41829;SDS011;38614;43.472;23.936;2023-04-24T13:34:02;1.70;;;1.20;;
41829;SDS011;38614;43.472;23.936;2023-04-24T13:36:52;4.90;;;1.33;;
41829;SDS011;38614;43.472;23.936;2023-04-24T13:39:41;3.90;;;1.60;;
41829;SDS011;38614;43.472;23.936;2023-04-24T13:42:28;1.25;;;1.15;;
41829;SDS011;38614;43.472;23.936;2023-04-24T13:45:16;6.30;;;1.83;;
41829;SDS011;38614;43.472;23.936;2023-04-24T13:48:09;3.75;;;0.95;;
41829;SDS011;38614;43.472;23.936;2023-04-24T13:50:57;7.93;;;1.02;;
41829;SDS011;38614;43.472;23.936;2023-04-24T13:53:45;7.47;;;1.58;;
41829;SDS011;38614;43.472;23.936;2023-04-24T13:56:33;4.82;;;1.30;;
41829;SDS011;38614;43.472;23.936;2023-04-24T13:59:21;2.40;;;1.30;;
41829;SDS011;38614;43.472;23.936;2023-04-24T14:02:08;7.53;;;1.40;;
41829;SDS011;38614;43.472;23.936;2023-04-24T14:04:56;2.75;;;1.10;;
41829;SDS011;38614;43.472;23.936;2023-04-24T14:07:44;3.50;;;1.27;;
41829;SDS011;38614;43.472;23.936;2023-04-24T14:10:32;1.55;;;1.40;;
41829;SDS011;38614;43.472;23.936;2023-04-24T14:13:20;2.67;;;1.10;;
41829;SDS011;38614;43.472;23.936;2023-04-24T14:16:08;2.60;;;1.75;;
41829;SDS011;38614;43.472;23.936;2023-04-24T14:18:55;4.40;;;1.65;;
41829;SDS011;38614;43.472;23.936;2023-04-24T14:21:43;2.63;;;1.45;;
41829;SDS011;38614;43.472;23.936;2023-04-24T14:24:31;4.97;;;1.02;;
41829;SDS011;38614;43.472;23.936;2023-04-24T14:27:22;11.05;;;1.42;;
41829;SDS011;38614;43.472;23.936;2023-04-24T14:30:10;7.97;;;1.42;;
41829;SDS011;38614;43.472;23.936;2023-04-24T14:32:59;1.60;;;1.13;;
41829;SDS011;38614;43.472;23.936;2023-04-24T14:35:47;3.90;;;1.13;;
41829;SDS011;38614;43.472;23.936;2023-04-24T14:38:34;2.55;;;1.30;;
41829;SDS011;38614;43.472;23.936;2023-04-24T14:41:25;3.65;;;1.20;;
41829;SDS011;38614;43.472;23.936;2023-04-24T14:44:12;5.22;;;1.50;;
41829;SDS011;38614;43.472;23.936;2023-04-24T14:47:00;2.75;;;1.30;;
41829;SDS011;38614;43.472;23.936;2023-04-24T14:49:48;3.22;;;1.33;;
41829;SDS011;38614;43.472;23.936;2023-04-24T14:52:36;5.35;;;0.93;;
41829;SDS011;38614;43.472;23.936;2023-04-24T14:55:25;1.60;;;1.45;;
41829;SDS011;38614;43.472;23.936;2023-04-24T14:58:13;4.68;;;1.00;;
41829;SDS011;38614;43.472;23.936;2023-04-24T15:01:01;3.53;;;0.82;;
41829;SDS011;38614;43.472;23.936;2023-04-24T15:03:49;1.63;;;1.33;;
41829;SDS011;38614;43.472;23.936;2023-04-24T15:06:40;6.05;;;1.05;;
41829;SDS011;38614;43.472;23.936;2023-04-24T15:09:30;5.25;;;1.25;;
41829;SDS011;38614;43.472;23.936;2023-04-24T15:12:19;1.80;;;1.25;;
41829;SDS011;38614;43.472;23.936;2023-04-24T15:15:07;4.65;;;1.30;;
41829;SDS011;38614;43.472;23.936;2023-04-24T15:17:55;10.55;;;1.15;;
41829;SDS011;38614;43.472;23.936;2023-04-24T15:20:43;6.10;;;1.35;;
41829;SDS011;38614;43.472;23.936;2023-04-24T15:23:31;5.18;;;0.90;;
41829;SDS011;38614;43.472;23.936;2023-04-24T15:26:19;2.15;;;1.15;;
41829;SDS011;38614;43.472;23.936;2023-04-24T15:29:07;1.23;;;0.93;;
41829;SDS011;38614;43.472;23.936;2023-04-24T15:31:54;2.33;;;1.17;;
41829;SDS011;38614;43.472;23.936;2023-04-24T15:34:42;1.23;;;1.13;;
41829;SDS011;38614;43.472;23.936;2023-04-24T15:37:31;7.05;;;1.42;;
41829;SDS011;38614;43.472;23.936;2023-04-24T15:40:19;3.72;;;2.13;;
41829;SDS011;38614;43.472;23.936;2023-04-24T15:43:07;5.25;;;1.90;;
41829;SDS011;38614;43.472;23.936;2023-04-24T15:45:55;4.38;;;1.75;;
41829;SDS011;38614;43.472;23.936;2023-04-24T15:48:43;3.58;;;1.65;;
41829;SDS011;38614;43.472;23.936;2023-04-24T15:51:33;2.05;;;1.45;;
41829;SDS011;38614;43.472;23.936;2023-04-24T15:54:23;2.33;;;1.58;;
41829;SDS011;38614;43.472;23.936;2023-04-24T15:57:11;6.55;;;1.15;;
41829;SDS011;38614;43.472;23.936;2023-04-24T16:00:01;11.02;;;1.20;;
41829;SDS011;38614;43.472;23.936;2023-04-24T16:03:00;3.67;;;1.60;;
41829;SDS011;38614;43.472;23.936;2023-04-24T16:05:49;1.95;;;1.20;;
41829;SDS011;38614;43.472;23.936;2023-04-24T16:08:37;1.88;;;0.73;;
41829;SDS011;38614;43.472;23.936;2023-04-24T16:11:25;1.83;;;1.15;;
41829;SDS011;38614;43.472;23.936;2023-04-24T16:14:13;2.75;;;0.90;;
41829;SDS011;38614;43.472;23.936;2023-04-24T16:17:01;1.48;;;0.80;;
41829;SDS011;38614;43.472;23.936;2023-04-24T16:19:49;2.95;;;1.13;;
41829;SDS011;38614;43.472;23.936;2023-04-24T16:22:38;1.27;;;1.02;;
41829;SDS011;38614;43.472;23.936;2023-04-24T16:25:27;2.58;;;1.20;;
41829;SDS011;38614;43.472;23.936;2023-04-24T16:28:18;7.25;;;1.77;;
41829;SDS011;38614;43.472;23.936;2023-04-24T16:31:07;9.40;;;2.17;;
41829;SDS011;38614;43.472;23.936;2023-04-24T16:33:55;6.25;;;2.05;;
41829;SDS011;38614;43.472;23.936;2023-04-24T16:36:44;6.10;;;2.25;;
41829;SDS011;38614;43.472;23.936;2023-04-24T16:39:32;3.88;;;1.95;;
41829;SDS011;38614;43.472;23.936;2023-04-24T16:42:21;4.53;;;2.03;;
41829;SDS011;38614;43.472;23.936;2023-04-24T16:45:10;5.18;;;2.70;;
41829;SDS011;38614;43.472;23.936;2023-04-24T16:47:58;8.50;;;3.60;;
41829;SDS011;38614;43.472;23.936;2023-04-24T16:50:48;19.55;;;5.78;;
41829;SDS011;38614;43.472;23.936;2023-04-24T16:53:37;8.65;;;4.38;;
41829;SDS011;38614;43.472;23.936;2023-04-24T16:56:27;1.65;;;1.50;;
41829;SDS011;38614;43.472;23.936;2023-04-24T16:59:16;2.70;;;1.45;;